createdAt,value
2023-03-02T00:01:27.503Z,37.20
2023-03-02T00:03:59.208Z,59.60
2023-03-02T00:06:31.123Z,48.90
2023-03-02T00:09:00.916Z,50.00
2023-03-02T00:11:29.219Z,56.00
2023-03-02T00:13:57.577Z,52.40
2023-03-02T00:16:25.828Z,39.90
2023-03-02T00:18:53.984Z,51.00
2023-03-02T00:21:24.196Z,37.90
2023-03-02T00:23:52.486Z,38.10
2023-03-02T00:26:20.524Z,27.80
2023-03-02T00:28:48.705Z,21.40
2023-03-02T00:31:16.808Z,27.60
2023-03-02T00:33:44.895Z,48.80
2023-03-02T00:36:19.158Z,19.30
2023-03-02T00:38:47.263Z,33.10
2023-03-02T00:41:15.788Z,25.80
2023-03-02T00:43:44.172Z,21.30
2023-03-02T00:46:15.284Z,26.70
2023-03-02T00:48:43.371Z,37.40
2023-03-02T00:51:11.522Z,20.00
2023-03-02T00:53:39.682Z,39.80
2023-03-02T00:56:08.634Z,26.90
2023-03-02T00:58:37.111Z,45.50
2023-03-02T01:01:07.291Z,24.90
2023-03-02T01:03:36.611Z,30.00
2023-03-02T01:06:05.027Z,30.60
2023-03-02T01:08:32.986Z,35.10
2023-03-02T01:11:01.601Z,28.60
2023-03-02T01:13:29.606Z,42.00
2023-03-02T01:16:02.717Z,37.40
2023-03-02T01:18:30.756Z,43.80
2023-03-02T01:21:03.332Z,35.80
2023-03-02T01:23:31.328Z,43.40
2023-03-02T01:25:59.385Z,36.10
2023-03-02T01:28:27.308Z,40.00
2023-03-02T01:30:55.422Z,41.00
2023-03-02T01:33:24.260Z,37.40
2023-03-02T01:35:52.343Z,31.50
2023-03-02T01:38:20.481Z,32.20
2023-03-02T01:40:48.583Z,39.60
2023-03-02T01:43:16.604Z,39.00
2023-03-02T01:45:58.632Z,42.10
2023-03-02T01:48:40.899Z,41.30
2023-03-02T01:51:08.918Z,36.20
2023-03-02T01:53:36.980Z,31.90
2023-03-02T01:56:05.816Z,35.50
2023-03-02T01:58:35.430Z,39.40
2023-03-02T02:01:03.683Z,39.80
2023-03-02T02:03:31.669Z,36.50
2023-03-02T02:06:21.509Z,37.40
2023-03-02T02:08:49.984Z,38.20
2023-03-02T02:11:18.247Z,34.10
2023-03-02T02:13:53.655Z,32.60
2023-03-02T02:16:21.673Z,33.90
2023-03-02T02:18:49.771Z,33.90
2023-03-02T02:21:17.718Z,29.00
2023-03-02T02:23:55.035Z,31.20
2023-03-02T02:26:26.813Z,36.90
2023-03-02T02:29:02.636Z,36.20
2023-03-02T02:31:35.525Z,19.90
2023-03-02T02:34:15.309Z,29.20
2023-03-02T02:36:45.496Z,32.00
2023-03-02T02:39:21.299Z,34.00
2023-03-02T02:41:49.830Z,35.10
2023-03-02T02:44:18.437Z,24.90
2023-03-02T02:46:47.176Z,32.40
2023-03-02T02:49:29.487Z,26.80
2023-03-02T02:52:00.274Z,29.40
2023-03-02T02:54:28.951Z,34.20
2023-03-02T02:56:57.450Z,38.40
2023-03-02T02:59:32.964Z,29.90
2023-03-02T03:02:01.389Z,31.80
2023-03-02T03:04:31.105Z,28.40
2023-03-02T03:07:04.465Z,31.70
2023-03-02T03:09:32.793Z,30.80
2023-03-02T03:12:09.633Z,35.30
2023-03-02T03:14:41.145Z,32.70
2023-03-02T03:17:12.766Z,39.90
2023-03-02T03:19:46.211Z,31.30
2023-03-02T03:22:15.308Z,28.80
2023-03-02T03:24:45.009Z,28.30
2023-03-02T03:27:14.746Z,30.30
2023-03-02T03:29:45.539Z,37.40
2023-03-02T03:32:13.608Z,32.80
2023-03-02T03:34:41.865Z,24.00
2023-03-02T03:37:31.162Z,17.10
2023-03-02T03:39:59.189Z,22.20
2023-03-02T03:42:27.399Z,30.80
2023-03-02T03:44:55.976Z,23.60
2023-03-02T03:47:24.105Z,28.70
2023-03-02T03:49:52.128Z,33.90
2023-03-02T03:52:30.496Z,22.80
2023-03-02T03:55:03.200Z,27.60
2023-03-02T03:57:31.411Z,28.20
2023-03-02T03:59:59.310Z,23.10
2023-03-02T04:02:27.288Z,30.20
2023-03-02T04:04:55.374Z,30.10
2023-03-02T04:07:23.499Z,22.30
2023-03-02T04:10:03.596Z,40.60
2023-03-02T04:12:35.148Z,45.00
2023-03-02T04:15:03.891Z,34.90
2023-03-02T04:17:31.895Z,36.60
2023-03-02T04:19:59.877Z,38.70
2023-03-02T04:22:28.209Z,27.50
2023-03-02T04:24:56.565Z,26.70
2023-03-02T04:27:24.617Z,22.20
2023-03-02T04:29:53.145Z,27.50
2023-03-02T04:32:21.681Z,31.10
2023-03-02T04:34:53.803Z,36.10
2023-03-02T04:37:21.838Z,30.90
2023-03-02T04:39:51.689Z,31.50
2023-03-02T04:42:20.246Z,35.00
2023-03-02T04:44:48.299Z,31.80
2023-03-02T04:47:16.279Z,32.40
2023-03-02T04:49:44.239Z,24.50
2023-03-02T04:52:12.280Z,24.40
2023-03-02T04:54:40.445Z,24.60
2023-03-02T04:57:08.832Z,17.70
2023-03-02T04:59:36.927Z,27.90
2023-03-02T05:02:04.847Z,24.90
2023-03-02T05:04:33.123Z,26.50
2023-03-02T05:07:01.154Z,22.00
2023-03-02T05:09:30.959Z,27.30
2023-03-02T05:12:00.526Z,14.00
2023-03-02T05:14:28.870Z,23.10
2023-03-02T05:16:56.961Z,22.50
2023-03-02T05:19:24.968Z,19.90
2023-03-02T05:21:53.071Z,20.20
2023-03-02T05:24:21.017Z,17.10
2023-03-02T05:26:49.110Z,24.00
2023-03-02T05:29:17.156Z,22.70
2023-03-02T05:31:45.454Z,22.20
2023-03-02T05:34:14.729Z,22.80
2023-03-02T05:36:43.074Z,15.30
2023-03-02T05:39:11.118Z,16.40
2023-03-02T05:41:39.401Z,22.20
2023-03-02T05:44:09.613Z,24.90
2023-03-02T05:46:38.021Z,24.00
2023-03-02T05:49:06.100Z,19.30
2023-03-02T05:51:34.523Z,20.30
2023-03-02T05:54:02.583Z,24.60
2023-03-02T05:56:30.863Z,20.00
2023-03-02T05:58:58.970Z,16.50
2023-03-02T06:01:27.048Z,15.50
2023-03-02T06:03:54.990Z,17.80
2023-03-02T06:06:22.918Z,16.60
2023-03-02T06:08:50.848Z,20.80
2023-03-02T06:11:18.869Z,19.30
2023-03-02T06:13:46.829Z,18.90
2023-03-02T06:16:14.881Z,15.30
2023-03-02T06:18:42.876Z,14.10
2023-03-02T06:21:10.804Z,20.20
2023-03-02T06:23:38.812Z,15.50
2023-03-02T06:26:10.543Z,17.40
2023-03-02T06:28:51.519Z,16.00
2023-03-02T06:31:21.035Z,18.20
2023-03-02T06:33:49.086Z,18.30
2023-03-02T06:36:17.807Z,15.90
2023-03-02T06:38:45.696Z,20.20
2023-03-02T06:41:13.644Z,17.80
2023-03-02T06:43:41.575Z,19.20
2023-03-02T06:46:09.607Z,19.00
2023-03-02T06:48:37.844Z,19.40
2023-03-02T06:51:07.836Z,15.20
2023-03-02T06:53:35.859Z,16.70
2023-03-02T06:56:04.171Z,16.70
2023-03-02T06:58:32.162Z,13.10
2023-03-02T07:01:00.179Z,14.40
2023-03-02T07:03:28.374Z,16.00
2023-03-02T07:05:56.420Z,14.70
2023-03-02T07:08:24.497Z,15.50
2023-03-02T07:10:52.752Z,16.10
2023-03-02T07:13:20.685Z,15.10
2023-03-02T07:15:48.812Z,17.80
2023-03-02T07:18:17.054Z,16.20
2023-03-02T07:20:44.994Z,13.10
2023-03-02T07:23:13.026Z,14.20
2023-03-02T07:25:40.988Z,14.70
2023-03-02T07:28:08.922Z,19.40
2023-03-02T07:30:36.835Z,15.20
2023-03-02T07:33:04.995Z,14.50
2023-03-02T07:35:35.106Z,17.20
2023-03-02T07:38:03.018Z,13.40
2023-03-02T07:40:30.978Z,17.60
2023-03-02T07:42:59.083Z,15.80
2023-03-02T07:45:27.042Z,15.90
2023-03-02T07:47:55.052Z,19.80
2023-03-02T07:50:23.034Z,16.70
2023-03-02T07:52:50.953Z,14.60
2023-03-02T07:55:19.132Z,12.00
2023-03-02T07:57:47.094Z,13.70
2023-03-02T08:00:15.706Z,16.40
2023-03-02T08:02:43.764Z,13.00
2023-03-02T08:05:12.194Z,12.50
2023-03-02T08:07:41.145Z,10.80
2023-03-02T08:10:10.526Z,12.30
2023-03-02T08:12:38.544Z,16.30
2023-03-02T08:15:06.990Z,18.00
2023-03-02T08:17:35.124Z,13.70
2023-03-02T08:20:04.615Z,17.70
2023-03-02T08:22:32.712Z,16.70
2023-03-02T08:25:01.010Z,13.30
2023-03-02T08:27:29.114Z,11.10
2023-03-02T08:29:57.061Z,13.70
2023-03-02T08:32:25.174Z,12.20
2023-03-02T08:34:53.293Z,11.30
2023-03-02T08:37:21.242Z,13.20
2023-03-02T08:39:49.287Z,11.50
2023-03-02T08:42:17.959Z,10.20
2023-03-02T08:44:46.065Z,10.40
2023-03-02T08:47:13.952Z,11.00
2023-03-02T08:49:42.863Z,10.60
2023-03-02T08:52:10.921Z,11.30
2023-03-02T08:54:40.854Z,11.00
2023-03-02T08:57:11.665Z,12.40
2023-03-02T08:59:39.724Z,11.90
2023-03-02T09:02:07.671Z,11.30
2023-03-02T09:04:35.646Z,10.90
2023-03-02T09:07:03.698Z,13.40
2023-03-02T09:09:31.627Z,9.00
2023-03-02T09:11:59.604Z,10.00
2023-03-02T09:14:27.725Z,10.60
2023-03-02T09:16:55.891Z,10.90
2023-03-02T09:19:23.867Z,12.40
2023-03-02T09:21:51.881Z,14.50
2023-03-02T09:24:19.812Z,10.40
2023-03-02T09:26:47.751Z,10.30
2023-03-02T09:29:15.697Z,11.60
2023-03-02T09:31:43.696Z,11.00
2023-03-02T09:34:11.690Z,8.80
2023-03-02T09:36:39.666Z,11.10
2023-03-02T09:39:12.579Z,9.70
2023-03-02T09:42:11.590Z,10.00
2023-03-02T09:44:53.861Z,7.50
2023-03-02T09:47:47.924Z,11.50
2023-03-02T09:50:33.426Z,11.10
2023-03-02T09:53:24.004Z,14.80
2023-03-02T09:55:59.221Z,9.00
2023-03-02T09:58:35.298Z,11.40
2023-03-02T10:01:06.329Z,7.80
2023-03-02T10:03:45.106Z,9.40
2023-03-02T10:06:13.214Z,17.50
2023-03-02T10:08:43.559Z,8.90
2023-03-02T10:11:26.567Z,10.20
2023-03-02T10:14:08.759Z,11.10
2023-03-02T10:17:30.823Z,11.20
2023-03-02T10:20:08.935Z,8.90
2023-03-02T10:22:43.502Z,9.00
2023-03-02T10:25:14.288Z,10.00
2023-03-02T10:27:43.043Z,8.50
2023-03-02T10:30:19.627Z,12.20
2023-03-02T10:32:51.674Z,10.50
2023-03-02T10:35:23.708Z,10.50
2023-03-02T10:37:54.929Z,9.70
2023-03-02T10:40:53.066Z,10.40
2023-03-02T10:43:31.113Z,9.90
2023-03-02T10:46:10.418Z,10.20
2023-03-02T10:48:54.528Z,9.40
2023-03-02T10:51:22.512Z,9.80
2023-03-02T10:53:50.633Z,9.50
2023-03-02T10:56:21.805Z,9.70
2023-03-02T10:58:49.819Z,10.10
2023-03-02T11:01:18.754Z,9.10
2023-03-02T11:03:57.513Z,10.70
2023-03-02T11:06:25.683Z,9.70
2023-03-02T11:09:05.001Z,12.80
2023-03-02T11:11:33.590Z,12.90
2023-03-02T11:14:28.744Z,12.70
2023-03-02T11:16:56.809Z,10.80
2023-03-02T11:19:35.263Z,11.80
2023-03-02T11:22:10.265Z,10.50
2023-03-02T11:24:43.468Z,9.30
2023-03-02T11:27:35.157Z,9.50
2023-03-02T11:30:05.322Z,10.70
2023-03-02T11:32:56.220Z,6.50
2023-03-02T11:35:34.270Z,8.50
2023-03-02T11:38:16.982Z,9.40
2023-03-02T11:40:58.794Z,10.70
2023-03-02T11:43:26.964Z,8.30
2023-03-02T11:46:00.864Z,10.80
2023-03-02T11:48:36.253Z,9.40
2023-03-02T11:51:07.451Z,9.10
2023-03-02T11:54:20.049Z,8.10
2023-03-02T11:56:48.247Z,10.10
2023-03-02T11:59:19.348Z,9.70
2023-03-02T12:01:49.436Z,9.90
2023-03-02T12:04:34.835Z,10.40
2023-03-02T12:07:15.851Z,10.60
2023-03-02T12:09:43.949Z,9.90
2023-03-02T12:12:14.772Z,10.60
2023-03-02T12:14:43.953Z,11.80
2023-03-02T12:17:22.862Z,10.10
2023-03-02T12:19:53.203Z,8.30
2023-03-02T12:22:29.367Z,8.60
2023-03-02T12:25:20.735Z,7.40
2023-03-02T12:27:50.314Z,10.60
2023-03-02T12:30:23.726Z,7.00
2023-03-02T12:33:10.476Z,10.70
2023-03-02T12:35:38.698Z,10.00
2023-03-02T12:38:29.689Z,7.60
2023-03-02T12:41:21.400Z,10.40
2023-03-02T12:44:01.044Z,9.50
2023-03-02T12:46:31.620Z,10.60
2023-03-02T12:49:18.887Z,8.30
2023-03-02T12:52:01.046Z,7.60
2023-03-02T12:54:34.026Z,7.00
2023-03-02T12:57:22.327Z,37.20
2023-03-02T12:59:58.430Z,10.30
2023-03-02T13:02:34.194Z,9.00
2023-03-02T13:05:04.973Z,7.50
2023-03-02T13:07:36.891Z,12.30
2023-03-02T13:10:27.998Z,10.20
2023-03-02T13:12:59.700Z,8.70
2023-03-02T13:15:27.708Z,6.10
2023-03-02T13:17:57.758Z,7.70
2023-03-02T13:20:28.358Z,9.50
2023-03-02T13:22:56.411Z,9.50
2023-03-02T13:25:33.571Z,9.00
2023-03-02T13:28:07.574Z,7.30
2023-03-02T13:30:37.402Z,8.20
2023-03-02T13:33:23.182Z,7.30
2023-03-02T13:35:51.254Z,7.70
2023-03-02T13:38:20.642Z,10.70
2023-03-02T13:40:51.470Z,5.60
2023-03-02T13:43:38.667Z,7.80
2023-03-02T13:46:16.022Z,8.30
2023-03-02T13:49:07.471Z,5.70
2023-03-02T13:51:44.648Z,7.40
2023-03-02T13:54:32.895Z,7.80
2023-03-02T13:57:02.690Z,6.10
2023-03-02T13:59:32.531Z,7.00
2023-03-02T14:02:01.302Z,7.30
2023-03-02T14:04:29.446Z,6.60
2023-03-02T14:06:57.646Z,6.50
2023-03-02T14:09:27.234Z,6.70
2023-03-02T14:11:55.435Z,8.70
2023-03-02T14:14:25.057Z,8.40
2023-03-02T14:16:53.271Z,6.50
2023-03-02T14:19:21.585Z,6.20
2023-03-02T14:21:49.686Z,7.60
2023-03-02T14:24:17.697Z,5.40
2023-03-02T14:26:49.407Z,6.30
2023-03-02T14:29:20.295Z,6.70
2023-03-02T14:31:48.368Z,6.50
2023-03-02T14:34:16.827Z,5.20
2023-03-02T14:36:46.323Z,7.10
2023-03-02T14:39:42.758Z,8.00
2023-03-02T14:42:18.482Z,6.00
2023-03-02T14:44:47.672Z,4.50
2023-03-02T14:47:16.755Z,8.50
2023-03-02T14:49:45.096Z,11.70
2023-03-02T14:52:19.070Z,5.60
2023-03-02T14:54:56.057Z,8.40
2023-03-02T14:57:25.759Z,6.60
2023-03-02T14:59:54.018Z,5.30
2023-03-02T15:02:26.152Z,5.40
2023-03-02T15:04:57.440Z,5.60
2023-03-02T15:07:27.036Z,6.10
2023-03-02T15:09:56.476Z,5.30
2023-03-02T15:12:24.493Z,5.80
2023-03-02T15:14:52.425Z,5.00
2023-03-02T15:17:20.491Z,8.80
2023-03-02T15:19:48.518Z,8.40
2023-03-02T15:22:16.681Z,5.70
2023-03-02T15:24:44.881Z,4.80
2023-03-02T15:27:12.812Z,4.90
2023-03-02T15:29:50.010Z,4.60
2023-03-02T15:32:18.102Z,6.50
2023-03-02T15:34:46.233Z,6.90
2023-03-02T15:37:14.385Z,10.50
2023-03-02T15:39:42.876Z,17.20
2023-03-02T15:42:12.709Z,13.90
2023-03-02T15:44:41.797Z,11.60
2023-03-02T15:47:10.537Z,15.40
2023-03-02T15:49:38.551Z,11.80
2023-03-02T15:52:06.637Z,12.30
2023-03-02T15:54:34.635Z,15.70
2023-03-02T15:57:03.344Z,13.30
2023-03-02T15:59:31.390Z,19.20
2023-03-02T16:01:59.857Z,18.90
2023-03-02T16:04:32.088Z,20.70
2023-03-02T16:07:00.288Z,35.50
2023-03-02T16:09:29.299Z,54.60
2023-03-02T16:11:57.574Z,34.90
2023-03-02T16:14:25.724Z,41.40
2023-03-02T16:16:53.848Z,51.10
2023-03-02T16:19:21.979Z,64.70
2023-03-02T16:21:49.964Z,73.60
2023-03-02T16:24:17.927Z,65.80
2023-03-02T16:26:45.937Z,25.30
2023-03-02T16:29:14.124Z,48.00
2023-03-02T16:31:42.304Z,51.00
2023-03-02T16:34:10.274Z,65.50
2023-03-02T16:36:39.524Z,59.00
2023-03-02T16:39:08.058Z,62.00
2023-03-02T16:41:36.188Z,47.70
2023-03-02T16:44:04.557Z,24.40
2023-03-02T16:46:36.399Z,27.30
2023-03-02T16:49:04.555Z,23.20
2023-03-02T16:51:32.684Z,15.00
2023-03-02T16:54:00.848Z,11.50
2023-03-02T16:56:28.992Z,16.90
2023-03-02T16:58:59.956Z,10.80
2023-03-02T17:01:29.954Z,13.40
2023-03-02T17:03:58.197Z,14.20
2023-03-02T17:06:26.285Z,19.60
2023-03-02T17:08:54.528Z,18.20
2023-03-02T17:11:22.669Z,19.10
2023-03-02T17:13:50.873Z,18.70
2023-03-02T17:16:19.535Z,20.40
2023-03-02T17:18:47.750Z,25.10
2023-03-02T17:21:16.722Z,82.40
2023-03-02T17:23:48.085Z,56.80
2023-03-02T17:26:16.683Z,41.70
2023-03-02T17:28:44.866Z,29.10
2023-03-02T17:31:13.091Z,29.20
2023-03-02T17:33:41.213Z,32.20
2023-03-02T17:36:12.186Z,52.10
2023-03-02T17:38:40.451Z,38.00
2023-03-02T17:41:09.564Z,33.20
2023-03-02T17:43:39.136Z,33.90
2023-03-02T17:46:11.755Z,33.50
2023-03-02T17:48:40.369Z,26.20
2023-03-02T17:51:08.461Z,28.10
2023-03-02T17:53:36.389Z,26.30
2023-03-02T17:56:06.312Z,23.20
2023-03-02T17:58:44.588Z,25.50
2023-03-02T18:01:15.992Z,25.00
2023-03-02T18:03:45.400Z,26.50
2023-03-02T18:06:13.692Z,34.00
2023-03-02T18:08:41.688Z,28.20
2023-03-02T18:11:10.024Z,25.50
2023-03-02T18:13:38.046Z,30.50
2023-03-02T18:16:06.532Z,30.40
2023-03-02T18:18:34.602Z,38.90
2023-03-02T18:21:02.960Z,33.80
2023-03-02T18:23:31.321Z,43.70
2023-03-02T18:25:59.491Z,45.00
2023-03-02T18:28:27.702Z,50.30
2023-03-02T18:30:55.970Z,48.90
2023-03-02T18:33:24.051Z,56.60
2023-03-02T18:35:52.383Z,45.60
2023-03-02T18:38:20.414Z,54.40
2023-03-02T18:40:48.429Z,51.50
2023-03-02T18:43:16.346Z,58.80
2023-03-02T18:45:44.410Z,70.20
2023-03-02T18:48:12.455Z,60.00
2023-03-02T18:50:40.457Z,60.10
2023-03-02T18:53:09.212Z,64.60
2023-03-02T18:55:38.018Z,61.90
2023-03-02T18:58:06.734Z,69.90
2023-03-02T19:00:37.683Z,76.50
2023-03-02T19:03:05.803Z,65.20
2023-03-02T19:05:34.153Z,64.50
2023-03-02T19:08:03.011Z,70.70
2023-03-02T19:10:31.073Z,70.00
2023-03-02T19:12:59.068Z,65.30
2023-03-02T19:15:27.277Z,70.10
2023-03-02T19:17:57.423Z,70.00
2023-03-02T19:20:27.329Z,70.30
2023-03-02T19:22:55.544Z,65.30
2023-03-02T19:25:24.492Z,70.20
2023-03-02T19:27:52.553Z,62.20
2023-03-02T19:30:24.998Z,70.30
2023-03-02T19:32:54.339Z,70.00
2023-03-02T19:35:23.647Z,79.50
2023-03-02T19:37:51.898Z,76.60
2023-03-02T19:40:21.468Z,82.00
2023-03-02T19:42:49.595Z,90.90
2023-03-02T19:45:20.363Z,89.60
2023-03-02T19:47:48.480Z,79.20
2023-03-02T19:50:17.447Z,71.80
2023-03-02T19:52:45.601Z,75.90
2023-03-02T19:55:14.669Z,73.40
2023-03-02T19:57:43.442Z,71.70
2023-03-02T20:00:15.441Z,81.00
2023-03-02T20:02:45.217Z,76.40
2023-03-02T20:05:13.362Z,74.30
2023-03-02T20:07:41.939Z,69.80
2023-03-02T20:10:11.053Z,68.20
2023-03-02T20:12:39.852Z,66.90
2023-03-02T20:15:08.540Z,55.00
2023-03-02T20:17:36.736Z,63.80
2023-03-02T20:20:05.828Z,72.20
2023-03-02T20:22:35.092Z,67.50
2023-03-02T20:25:04.245Z,72.10
2023-03-02T20:27:32.319Z,58.60
2023-03-02T20:30:00.518Z,67.00
2023-03-02T20:32:28.865Z,62.00
2023-03-02T20:34:58.739Z,73.00
2023-03-02T20:37:26.931Z,69.10
2023-03-02T20:39:55.333Z,73.20
2023-03-02T20:42:23.570Z,73.30
2023-03-02T20:44:52.282Z,83.80
2023-03-02T20:47:20.557Z,71.00
2023-03-02T20:49:49.013Z,80.20
2023-03-02T20:52:17.296Z,67.40
2023-03-02T20:54:45.374Z,65.10
2023-03-02T20:57:17.946Z,60.80
2023-03-02T20:59:46.587Z,58.50
2023-03-02T21:02:15.323Z,60.70
2023-03-02T21:04:43.689Z,70.80
2023-03-02T21:07:11.925Z,69.90
2023-03-02T21:09:40.295Z,61.90
2023-03-02T21:12:08.869Z,71.70
2023-03-02T21:14:36.900Z,68.30
2023-03-02T21:17:05.314Z,72.40
2023-03-02T21:19:34.854Z,61.10
2023-03-02T21:22:03.081Z,73.50
2023-03-02T21:24:31.464Z,55.20
2023-03-02T21:27:02.042Z,68.40
2023-03-02T21:29:30.429Z,48.90
2023-03-02T21:31:59.099Z,63.90
2023-03-02T21:34:29.379Z,69.40
2023-03-02T21:36:59.827Z,65.70
2023-03-02T21:39:27.947Z,74.60
2023-03-02T21:41:56.243Z,65.10
2023-03-02T21:44:24.434Z,67.70
2023-03-02T21:46:52.733Z,73.30
2023-03-02T21:49:21.654Z,81.00
2023-03-02T21:51:50.260Z,55.70
2023-03-02T21:54:18.248Z,75.80
2023-03-02T21:56:46.368Z,74.80
2023-03-02T21:59:14.399Z,66.40
2023-03-02T22:01:42.592Z,73.30
2023-03-02T22:04:10.812Z,67.40
2023-03-02T22:06:38.850Z,77.30
2023-03-02T22:09:07.044Z,75.10
2023-03-02T22:11:36.569Z,74.50
2023-03-02T22:14:14.454Z,76.40
2023-03-02T22:16:43.473Z,69.40
2023-03-02T22:19:31.003Z,68.80
2023-03-02T22:22:00.535Z,81.50
2023-03-02T22:24:32.319Z,80.30
2023-03-02T22:27:36.753Z,82.40
2023-03-02T22:30:15.381Z,77.50
2023-03-02T22:32:43.918Z,84.30
2023-03-02T22:35:24.811Z,65.70
2023-03-02T22:38:16.410Z,74.10
2023-03-02T22:40:44.948Z,74.40
2023-03-02T22:43:30.008Z,85.20
2023-03-02T22:46:33.744Z,85.20
2023-03-02T22:49:01.750Z,65.50
2023-03-02T22:51:30.615Z,82.30
2023-03-02T22:53:59.517Z,74.60
2023-03-02T22:56:43.146Z,77.60
2023-03-02T22:59:22.823Z,76.30
2023-03-02T23:01:58.103Z,71.90
2023-03-02T23:04:36.151Z,71.10
2023-03-02T23:07:24.418Z,69.20
2023-03-02T23:09:53.681Z,70.30
2023-03-02T23:12:26.925Z,71.20
2023-03-02T23:14:56.704Z,64.90
2023-03-02T23:17:39.078Z,61.70
2023-03-02T23:20:10.179Z,69.60
2023-03-02T23:22:39.258Z,59.50
2023-03-02T23:25:07.975Z,61.90
2023-03-02T23:27:35.984Z,58.40
2023-03-02T23:30:04.388Z,62.90
2023-03-02T23:32:32.470Z,67.10
2023-03-02T23:35:00.753Z,63.80
2023-03-02T23:37:28.973Z,61.70
2023-03-02T23:39:57.035Z,53.90
2023-03-02T23:42:24.952Z,61.20
2023-03-02T23:44:56.005Z,57.20
2023-03-02T23:47:24.362Z,48.70
2023-03-02T23:49:52.357Z,57.90
2023-03-02T23:52:21.653Z,55.00
2023-03-02T23:54:49.883Z,57.00
2023-03-02T23:57:17.886Z,52.90
2023-03-02T23:59:45.867Z,40.20
